Time;durP1;ratioP1;P1;durP2;ratioP2;P2;SDS_P1;SDS_P2;PMS_P1;PMS_P2;Temp;Humidity;BMP_temperature;BMP_pressure;BME280_temperature;BME280_humidity;BME280_pressure;Samples;Min_cycle;Max_cycle;Signal;HPM_P1;HPM_P2
2022/03/14 00:02:14;;;;;;;;;;;;;;;;;;;;;
2022/03/14 00:11:24;;;;;;;;;;;;;;;;;;;;;
2022/03/14 00:14:09;;;;;;;33.08;7.57;;;;;;;;;;5949846;24;20009;-93
2022/03/14 00:20:15;;;;;;;;;;;;;;;;;;;;;
2022/03/14 00:26:06;;;;;;;;;;;;;;;;;;;;;
2022/03/14 00:41:06;;;;;;;;;;;;;;;;;;;;;
2022/03/14 00:46:54;;;;;;;;;;;;;;;;;;;;;
2022/03/14 00:49:47;;;;;;;;;;;;;;;;;;;;;
2022/03/14 00:55:25;;;;;;;29.05;7.63;;;;;;;;;;5984027;23;20136;-94
2022/03/14 01:03:54;;;;;;;;;;;;;;;;;;;;;
2022/03/14 01:06:23;;;;;;;33.47;8.55;;;;;;;;;;6034428;23;20085;-92
2022/03/14 01:12:11;;;;;;;;;;;;;;;;;;;;;
2022/03/14 01:14:48;;;;;;;;;;;;;;;;;;;;;
2022/03/14 01:17:33;;;;;;;35.38;9.73;;;;;;;;;;6228421;22;20089;-94
2022/03/14 01:25:54;;;;;;;;;;;;;;;;;;;;;
2022/03/14 01:28:51;;;;;;;42.03;10.05;;;;;;;;;;6279803;22;20034;-92
2022/03/14 01:44:12;;;;;;;;;;;;;;;;;;;;;
2022/03/14 01:53:22;;;;;;;;;;;;;;;;;;;;;
2022/03/14 01:56:16;;;;;;;;;;;;;;;;;;;;;
2022/03/14 01:59:05;;;;;;;27.75;6.05;;;;;;;;;;6209943;23;20079;-95
2022/03/14 02:10:50;;;;;;;20.58;5.45;;;;;;;;;;6062507;23;20095;-93
2022/03/14 02:25:48;;;;;;;;;;;;;;;;;;;;;
2022/03/14 02:34:38;;;;;;;22.67;5.35;;;;;;;;;;6000439;23;20035;-93
2022/03/14 02:37:17;;;;;;;21.70;5.93;;;;;;;;;;6031549;23;20019;-92
2022/03/14 02:40:25;;;;;;;25.27;5.55;;;;;;;;;;6040444;23;20444;-94
2022/03/14 02:48:57;;;;;;;24.95;6.82;;;;;;;;;;6077923;23;20030;-93
2022/03/14 02:54:12;;;;;;;24.48;6.80;;;;;;;;;;6196347;23;20345;-94
2022/03/14 03:03:02;;;;;;;29.15;6.82;;;;;;;;;;6280208;22;20003;-94
2022/03/14 03:05:30;;;;;;;24.95;6.97;;;;;;;;;;6305357;22;20458;-93
2022/03/14 03:08:13;;;;;;;;;;;;;;;;;;;;;
2022/03/14 03:10:49;;;;;;;29.55;7.10;;;;;;;;;;6305347;22;20082;-92
2022/03/14 03:13:16;;;;;;;20.30;7.35;;;;;;;;;;6305393;22;20007;-95
2022/03/14 03:15:42;;;;;;;29.05;7.65;;;;;;;;;;6277712;22;20018;-92
2022/03/14 03:18:11;;;;;;;26.00;6.38;;;;;;;;;;6304797;22;20005;-91
2022/03/14 03:20:40;;;;;;;24.95;5.72;;;;;;;;;;6305863;22;19996;-92
2022/03/14 03:23:08;;;;;;;15.25;5.00;;;;;;;;;;6278676;22;20011;-93
2022/03/14 03:25:34;;;;;;;;;;;;;;;;;;6280200;22;20060;-94
2022/03/14 03:28:06;;;;;;;18.50;5.38;;;;;;;;;;6307754;22;19907;-95
2022/03/14 03:30:49;;;;;;;17.00;5.40;;;;;;;;;;6240987;23;20014;-93
2022/03/14 03:33:25;;;;;;;22.25;4.90;;;;;;;;;;6216012;23;20008;-92
2022/03/14 03:36:07;;;;;;;;;;;;;;;;;;;;;
2022/03/14 03:38:45;;;;;;;20.25;6.18;;;;;;;;;;6242031;23;20496;-91
2022/03/14 03:41:11;;;;;;;25.70;4.78;;;;;;;;;;6215594;23;20316;-94
2022/03/14 03:43:38;;;;;;;27.27;5.97;;;;;;;;;;6216851;23;20571;-93
2022/03/14 03:46:04;;;;;;;21.48;5.28;;;;;;;;;;6216405;23;20384;-95
2022/03/14 03:48:30;;;;;;;32.85;7.38;;;;;;;;;;6215621;23;20063;-94
2022/03/14 03:50:56;;;;;;;30.63;6.30;;;;;;;;;;6240817;23;20004;-90
2022/03/14 03:53:28;;;;;;;24.48;5.95;;;;;;;;;;6215530;23;20008;-92
2022/03/14 03:55:54;;;;;;;24.23;5.07;;;;;;;;;;6215179;23;20103;-94
2022/03/14 03:58:20;;;;;;;25.23;5.53;;;;;;;;;;6215297;23;20008;-91
2022/03/14 04:00:46;;;;;;;22.20;5.75;;;;;;;;;;6245568;22;20498;-93
2022/03/14 04:03:12;;;;;;;24.55;5.43;;;;;;;;;;6304511;22;19995;-94
2022/03/14 04:05:41;;;;;;;26.63;7.47;;;;;;;;;;6305344;22;20014;-93
2022/03/14 04:08:10;;;;;;;27.65;5.82;;;;;;;;;;6305577;22;20007;-91
2022/03/14 04:10:37;;;;;;;32.28;5.93;;;;;;;;;;6305546;22;19999;-92
2022/03/14 04:13:06;;;;;;;24.30;5.90;;;;;;;;;;6277380;22;20078;-92
2022/03/14 04:15:37;;;;;;;;;;;;;;;;;;6277876;22;20015;-92
2022/03/14 04:18:06;;;;;;;26.35;6.13;;;;;;;;;;6277277;22;19899;-93
2022/03/14 04:20:32;;;;;;;35.08;6.80;;;;;;;;;;6277203;22;20444;-93
2022/03/14 04:22:58;;;;;;;29.08;5.70;;;;;;;;;;6304593;22;19999;-92
2022/03/14 04:25:24;;;;;;;28.63;6.00;;;;;;;;;;6277229;22;20387;-92
2022/03/14 04:27:51;;;;;;;31.73;6.05;;;;;;;;;;6304944;22;20003;-93
2022/03/14 04:30:17;;;;;;;27.63;7.15;;;;;;;;;;6304586;22;20075;-93
2022/03/14 04:32:44;;;;;;;25.23;5.78;;;;;;;;;;6304605;22;20003;-94
2022/03/14 04:35:12;;;;;;;20.20;6.00;;;;;;;;;;6305233;22;20006;-94
2022/03/14 04:37:41;;;;;;;37.30;6.20;;;;;;;;;;6307278;22;20061;-93
2022/03/14 04:40:08;;;;;;;22.80;5.35;;;;;;;;;;6278949;22;20335;-93
2022/03/14 04:42:44;;;;;;;20.85;5.22;;;;;;;;;;6296679;22;19991;-91
2022/03/14 04:51:44;;;;;;;26.02;7.50;;;;;;;;;;6290342;22;20069;-93
2022/03/14 04:54:33;;;;;;;44.83;14.05;;;;;;;;;;6233696;23;20048;-90
2022/03/14 04:57:54;;;;;;;36.72;9.07;;;;;;;;;;6227307;23;20012;-92
2022/03/14 05:00:54;;;;;;;;;;;;;;;;;;;;;
2022/03/14 05:03:39;;;;;;;32.75;5.97;;;;;;;;;;6161332;23;20009;-92
2022/03/14 05:06:12;;;;;;;27.92;6.38;;;;;;;;;;6228616;23;20008;-93
2022/03/14 05:14:12;;;;;;;32.22;7.95;;;;;;;;;;6334693;22;20066;-88
2022/03/14 05:16:57;;;;;;;36.35;6.43;;;;;;;;;;6303986;22;20082;-90
2022/03/14 05:20:08;;;;;;;40.20;7.10;;;;;;;;;;6324882;22;19992;-90
2022/03/14 05:23:20;;;;;;;33.92;6.70;;;;;;;;;;6267383;22;20130;-92
2022/03/14 05:25:47;;;;;;;24.92;7.80;;;;;;;;;;6156409;23;19993;-89
2022/03/14 05:28:14;;;;;;;27.70;7.45;;;;;;;;;;6180338;23;19997;-91
2022/03/14 05:31:38;;;;;;;27.27;6.85;;;;;;;;;;6171399;23;20037;-95
2022/03/14 05:34:34;;;;;;;29.73;6.85;;;;;;;;;;6176587;23;20016;-92
2022/03/14 05:37:17;;;;;;;27.58;7.30;;;;;;;;;;6176342;23;20088;-89
2022/03/14 06:18:04;;;;;;;26.35;6.95;;;;;;;;;;6273804;22;20019;-93
2022/03/14 06:20:53;;;;;;;24.27;6.93;;;;;;;;;;6277674;22;20006;-92
2022/03/14 06:23:19;;;;;;;30.33;7.25;;;;;;;;;;6271818;22;20008;-90
2022/03/14 07:23:06;;;;;;;30.58;8.90;;;;;;;;;;6273597;22;20012;-90
2022/03/14 07:25:32;;;;;;;;;;;;;;;;;;6275738;22;20035;-90
2022/03/14 07:28:00;;;;;;;23.20;7.55;;;;;;;;;;6247977;22;19899;-89
2022/03/14 07:30:26;;;;;;;29.88;10.25;;;;;;;;;;6248319;22;20010;-91
2022/03/14 07:32:52;;;;;;;33.90;10.13;;;;;;;;;;6248850;22;20008;-89
2022/03/14 07:35:19;;;;;;;30.63;9.10;;;;;;;;;;6248685;22;19996;-89
2022/03/14 07:37:45;;;;;;;26.75;7.97;;;;;;;;;;6248607;22;20007;-90
2022/03/14 07:40:12;;;;;;;25.35;8.40;;;;;;;;;;6247780;22;19996;-89
2022/03/14 07:42:41;;;;;;;27.38;6.38;;;;;;;;;;6247494;22;20030;-92
2022/03/14 07:45:08;;;;;;;21.58;6.20;;;;;;;;;;6247886;22;20003;-90
2022/03/14 07:47:34;;;;;;;23.40;7.93;;;;;;;;;;6247933;22;20466;-89
2022/03/14 07:50:00;;;;;;;19.15;6.30;;;;;;;;;;6247722;22;20004;-88
2022/03/14 07:52:27;;;;;;;23.20;7.20;;;;;;;;;;6247613;22;20008;-92
2022/03/14 07:54:53;;;;;;;19.08;6.30;;;;;;;;;;6247648;22;20035;-89
2022/03/14 07:57:19;;;;;;;15.73;5.68;;;;;;;;;;6248700;22;20349;-91
2022/03/14 07:59:46;;;;;;;26.73;6.70;;;;;;;;;;6248098;22;20004;-90
2022/03/14 08:02:13;;;;;;;22.52;5.60;;;;;;;;;;6247903;22;20012;-91
2022/03/14 08:04:39;;;;;;;22.08;5.68;;;;;;;;;;6247415;22;20133;-91
2022/03/14 08:07:06;;;;;;;16.02;5.72;;;;;;;;;;6247573;22;20007;-89
2022/03/14 08:09:32;;;;;;;18.23;5.22;;;;;;;;;;6247257;22;20390;-90
2022/03/14 08:12:00;;;;;;;18.63;5.80;;;;;;;;;;6248089;22;20371;-89
2022/03/14 08:14:26;;;;;;;21.02;5.28;;;;;;;;;;6247799;22;19996;-91
2022/03/14 08:16:53;;;;;;;19.00;5.88;;;;;;;;;;6274854;22;20011;-90
2022/03/14 08:19:20;;;;;;;18.95;5.28;;;;;;;;;;6248346;22;20011;-89
2022/03/14 08:21:47;;;;;;;20.15;5.15;;;;;;;;;;6247530;22;20023;-90
2022/03/14 08:24:13;;;;;;;19.95;5.07;;;;;;;;;;6247581;22;20219;-90
2022/03/14 08:26:39;;;;;;;16.98;4.50;;;;;;;;;;6247833;22;20474;-90
2022/03/14 08:29:05;;;;;;;17.63;5.05;;;;;;;;;;6247965;22;19996;-90
2022/03/14 08:31:32;;;;;;;17.80;4.70;;;;;;;;;;6247865;22;20014;-90
2022/03/14 08:33:58;;;;;;;18.08;5.18;;;;;;;;;;6247498;22;20004;-90
2022/03/14 08:36:24;;;;;;;19.40;4.60;;;;;;;;;;6247560;22;20023;-92
2022/03/14 08:38:51;;;;;;;20.75;4.78;;;;;;;;;;6248110;22;20011;-89
2022/03/14 08:41:17;;;;;;;20.52;4.93;;;;;;;;;;6247551;22;20004;-89
2022/03/14 08:43:44;;;;;;;13.30;4.50;;;;;;;;;;6247962;22;20458;-90
2022/03/14 08:46:11;;;;;;;17.35;4.47;;;;;;;;;;6248340;22;20065;-90
2022/03/14 08:48:37;;;;;;;17.10;5.00;;;;;;;;;;6248931;22;20339;-89
2022/03/14 08:51:03;;;;;;;18.30;4.90;;;;;;;;;;6247111;22;20000;-89
2022/03/14 08:53:30;;;;;;;13.13;4.38;;;;;;;;;;6247221;22;19999;-91
2022/03/14 08:55:56;;;;;;;17.40;4.75;;;;;;;;;;6247473;22;20003;-89
2022/03/14 08:58:23;;;;;;;16.73;4.35;;;;;;;;;;6248878;22;20015;-90
2022/03/14 09:00:49;;;;;;;15.15;4.20;;;;;;;;;;6248059;22;20007;-91
2022/03/14 09:03:15;;;;;;;14.23;4.22;;;;;;;;;;6248387;22;20011;-90
2022/03/14 09:05:42;;;;;;;13.93;4.18;;;;;;;;;;6247275;22;20011;-90
2022/03/14 09:08:09;;;;;;;14.32;4.60;;;;;;;;;;6248451;22;20058;-90
2022/03/14 09:10:37;;;;;;;16.90;4.50;;;;;;;;;;6247563;22;20014;-90
2022/03/14 09:13:04;;;;;;;14.38;4.47;;;;;;;;;;6247677;22;20072;-90
2022/03/14 09:15:30;;;;;;;15.43;4.38;;;;;;;;;;6246913;22;20004;-89
2022/03/14 09:17:59;;;;;;;9.15;3.72;;;;;;;;;;6247776;22;20012;-90
2022/03/14 09:20:26;;;;;;;14.80;3.90;;;;;;;;;;6247715;22;19999;-90
2022/03/14 09:22:52;;;;;;;16.23;3.95;;;;;;;;;;6247790;22;20016;-90
2022/03/14 09:25:19;;;;;;;13.48;4.18;;;;;;;;;;6247274;22;19999;-91
2022/03/14 09:27:45;;;;;;;19.95;5.35;;;;;;;;;;6247928;22;20049;-90
2022/03/14 09:30:13;;;;;;;13.18;4.03;;;;;;;;;;6247359;22;20004;-91
2022/03/14 09:32:39;;;;;;;11.00;3.40;;;;;;;;;;6247512;22;20035;-90
2022/03/14 09:35:07;;;;;;;12.32;3.60;;;;;;;;;;6248282;22;20030;-91
2022/03/14 09:37:33;;;;;;;14.93;3.88;;;;;;;;;;6247250;22;20325;-91
2022/03/14 09:39:59;;;;;;;12.50;5.05;;;;;;;;;;6246710;22;20516;-91
2022/03/14 09:42:26;;;;;;;13.43;4.03;;;;;;;;;;6247984;22;20004;-89
2022/03/14 09:44:53;;;;;;;15.18;3.67;;;;;;;;;;6246906;22;20003;-91
2022/03/14 09:47:23;;;;;;;14.95;3.70;;;;;;;;;;6247428;22;19995;-90
2022/03/14 09:49:49;;;;;;;12.80;3.85;;;;;;;;;;6247638;22;20008;-91
2022/03/14 09:52:16;;;;;;;14.77;3.30;;;;;;;;;;6246851;22;20000;-90
2022/03/14 09:54:42;;;;;;;13.10;3.65;;;;;;;;;;6247502;22;20436;-90
2022/03/14 09:57:08;;;;;;;13.27;4.00;;;;;;;;;;6246859;22;20444;-90
2022/03/14 09:59:36;;;;;;;11.38;3.10;;;;;;;;;;6247554;22;20091;-92
2022/03/14 10:02:04;;;;;;;11.02;3.65;;;;;;;;;;6248236;22;20025;-91
2022/03/14 10:04:30;;;;;;;10.20;3.38;;;;;;;;;;6247260;22;20010;-91
2022/03/14 10:06:56;;;;;;;11.75;3.40;;;;;;;;;;6247758;22;20436;-90
2022/03/14 10:09:29;;;;;;;13.63;3.40;;;;;;;;;;6247867;22;20030;-91
2022/03/14 10:11:56;;;;;;;13.45;2.80;;;;;;;;;;6247833;22;20352;-92
2022/03/14 10:14:25;;;;;;;11.18;3.20;;;;;;;;;;6247443;22;20082;-91
2022/03/14 10:16:55;;;;;;;12.70;3.17;;;;;;;;;;6246951;22;20509;-91
2022/03/14 10:19:22;;;;;;;9.40;3.05;;;;;;;;;;6247226;22;20398;-91
2022/03/14 10:21:52;;;;;;;13.07;3.25;;;;;;;;;;6247753;22;20022;-90
2022/03/14 10:24:22;;;;;;;14.18;3.55;;;;;;;;;;6248292;22;20034;-91
2022/03/14 10:26:49;;;;;;;8.98;3.15;;;;;;;;;;6249528;22;20031;-91
2022/03/14 10:29:15;;;;;;;12.73;3.13;;;;;;;;;;6247224;22;20533;-91
2022/03/14 10:31:45;;;;;;;10.32;3.13;;;;;;;;;;6247237;22;20011;-92
2022/03/14 10:34:17;;;;;;;11.10;2.80;;;;;;;;;;6247650;22;20004;-91
2022/03/14 10:36:47;;;;;;;12.07;2.92;;;;;;;;;;6247215;22;20035;-90
2022/03/14 10:39:19;;;;;;;12.15;2.97;;;;;;;;;;6248021;22;20031;-90
2022/03/14 10:41:47;;;;;;;8.00;2.70;;;;;;;;;;6247123;22;20007;-91
2022/03/14 10:44:25;;;;;;;8.37;2.67;;;;;;;;;;6247209;22;20010;-92
2022/03/14 10:46:51;;;;;;;12.38;2.97;;;;;;;;;;6247831;22;20257;-90
2022/03/14 10:49:17;;;;;;;7.13;2.97;;;;;;;;;;6247167;22;20008;-91
2022/03/14 10:51:57;;;;;;;9.43;2.75;;;;;;;;;;6247013;22;20012;-90
2022/03/14 10:54:23;;;;;;;8.95;2.70;;;;;;;;;;6247361;22;20004;-91
2022/03/14 10:57:05;;;;;;;7.80;2.50;;;;;;;;;;6247008;22;20016;-91
2022/03/14 10:59:40;;;;;;;11.98;2.47;;;;;;;;;;6249112;22;20000;-90
2022/03/14 11:02:10;;;;;;;14.15;3.90;;;;;;;;;;6248389;22;20014;-92
2022/03/14 11:04:40;;;;;;;12.18;2.80;;;;;;;;;;6248944;22;20004;-92
2022/03/14 11:07:06;;;;;;;9.82;2.45;;;;;;;;;;6249430;22;20004;-91
2022/03/14 11:09:38;;;;;;;14.68;2.85;;;;;;;;;;6250324;22;20000;-90
2022/03/14 11:12:09;;;;;;;9.18;2.75;;;;;;;;;;6249254;22;20057;-91
2022/03/14 11:14:35;;;;;;;10.88;2.58;;;;;;;;;;6248674;22;20318;-91
2022/03/14 11:17:12;;;;;;;12.52;2.50;;;;;;;;;;6249817;22;20077;-91
2022/03/14 11:19:39;;;;;;;11.68;2.40;;;;;;;;;;6248844;22;20000;-91
2022/03/14 11:22:19;;;;;;;11.73;2.42;;;;;;;;;;6248475;22;20522;-93
2022/03/14 11:24:49;;;;;;;10.43;2.45;;;;;;;;;;6248428;22;20000;-91
2022/03/14 11:27:21;;;;;;;8.60;2.20;;;;;;;;;;6248519;22;20313;-90
2022/03/14 11:29:47;;;;;;;5.82;2.35;;;;;;;;;;6249046;22;20008;-90
2022/03/14 11:32:15;;;;;;;6.80;2.30;;;;;;;;;;6248240;22;20083;-92
2022/03/14 11:34:42;;;;;;;11.93;2.67;;;;;;;;;;6250094;22;20039;-90
2022/03/14 11:37:11;;;;;;;7.22;2.42;;;;;;;;;;6248360;22;20022;-91
2022/03/14 11:39:37;;;;;;;12.25;2.47;;;;;;;;;;6249255;22;20010;-90
2022/03/14 11:42:06;;;;;;;7.88;2.65;;;;;;;;;;6248499;22;20027;-91
2022/03/14 11:44:33;;;;;;;13.02;2.72;;;;;;;;;;6249067;22;20000;-91
2022/03/14 11:47:00;;;;;;;11.50;2.55;;;;;;;;;;6249548;22;20012;-91
2022/03/14 11:49:30;;;;;;;9.45;2.50;;;;;;;;;;6248172;22;20010;-90
2022/03/14 11:52:18;;;;;;;7.25;2.05;;;;;;;;;;6248212;22;20010;-91
2022/03/14 11:54:49;;;;;;;8.57;2.50;;;;;;;;;;6248260;22;20079;-91
2022/03/14 11:57:34;;;;;;;7.68;2.40;;;;;;;;;;6249194;22;20015;-91
2022/03/14 12:00:20;;;;;;;12.65;2.67;;;;;;;;;;6249145;22;20035;-89
2022/03/14 12:02:46;;;;;;;6.28;2.00;;;;;;;;;;6247746;22;20065;-90
2022/03/14 12:05:15;;;;;;;12.20;2.75;;;;;;;;;;6248168;22;20007;-91
2022/03/14 12:07:41;;;;;;;7.05;2.03;;;;;;;;;;6248832;22;20090;-90
2022/03/14 12:10:29;;;;;;;9.20;2.50;;;;;;;;;;6249170;22;19999;-92
2022/03/14 12:13:03;;;;;;;9.30;2.92;;;;;;;;;;6248516;22;20225;-92
2022/03/14 12:15:38;;;;;;;10.30;2.42;;;;;;;;;;6250939;22;20011;-90
2022/03/14 12:18:23;;;;;;;10.23;2.10;;;;;;;;;;6249733;22;20018;-92
2022/03/14 12:20:52;;;;;;;5.15;1.90;;;;;;;;;;6276114;22;20007;-90
2022/03/14 12:23:48;;;;;;;6.70;2.40;;;;;;;;;;6248195;22;20015;-92
2022/03/14 12:26:24;;;;;;;8.38;2.13;;;;;;;;;;6223132;22;20086;-90
2022/03/14 12:28:52;;;;;;;7.20;2.00;;;;;;;;;;6247861;22;20440;-90
2022/03/14 12:31:18;;;;;;;;;;;;;;;;;;6248697;22;20439;-92
2022/03/14 12:33:46;;;;;;;6.90;2.10;;;;;;;;;;6247933;22;20370;-91
2022/03/14 12:36:24;;;;;;;5.57;1.90;;;;;;;;;;6248371;22;20054;-91
2022/03/14 12:39:06;;;;;;;4.57;1.60;;;;;;;;;;6247912;22;20090;-90
2022/03/14 12:41:32;;;;;;;6.72;2.55;;;;;;;;;;6249493;22;20352;-90
2022/03/14 12:43:59;;;;;;;6.55;1.80;;;;;;;;;;6248035;22;20057;-91
2022/03/14 12:46:26;;;;;;;5.85;2.35;;;;;;;;;;6247984;22;20003;-91
2022/03/14 12:48:53;;;;;;;10.55;2.65;;;;;;;;;;6247804;22;20114;-92
2022/03/14 12:51:26;;;;;;;8.40;2.00;;;;;;;;;;6247857;22;19999;-90
2022/03/14 12:54:00;;;;;;;6.03;2.15;;;;;;;;;;6247926;22;20443;-91
2022/03/14 12:56:28;;;;;;;7.82;2.20;;;;;;;;;;6248042;22;20022;-90
2022/03/14 12:59:07;;;;;;;6.68;2.22;;;;;;;;;;6251491;22;20011;-90
2022/03/14 13:01:34;;;;;;;7.75;2.10;;;;;;;;;;6250941;22;20008;-90
2022/03/14 13:04:01;;;;;;;9.27;2.17;;;;;;;;;;6275817;22;20328;-91
2022/03/14 13:06:32;;;;;;;7.20;1.92;;;;;;;;;;6250187;22;20000;-90
2022/03/14 13:09:00;;;;;;;8.52;2.28;;;;;;;;;;6250865;22;20141;-90
2022/03/14 13:11:37;;;;;;;8.23;2.42;;;;;;;;;;6249396;22;20031;-90
2022/03/14 13:14:05;;;;;;;9.75;2.35;;;;;;;;;;6248454;22;20008;-92
2022/03/14 13:16:31;;;;;;;7.85;2.10;;;;;;;;;;6248922;22;20026;-91
2022/03/14 13:19:06;;;;;;;6.45;2.17;;;;;;;;;;6248706;22;20372;-92
2022/03/14 13:21:33;;;;;;;5.75;2.28;;;;;;;;;;6249648;22;20061;-90
2022/03/14 13:23:59;;;;;;;8.73;2.30;;;;;;;;;;6249449;22;20394;-90
2022/03/14 13:26:26;;;;;;;6.80;2.22;;;;;;;;;;6248914;22;20454;-90
2022/03/14 13:28:52;;;;;;;5.18;1.92;;;;;;;;;;6247959;22;20003;-90
2022/03/14 13:31:30;;;;;;;9.38;2.10;;;;;;;;;;6248592;22;20344;-91
2022/03/14 13:33:56;;;;;;;8.40;2.23;;;;;;;;;;6247681;22;20086;-91
2022/03/14 13:36:22;;;;;;;10.30;2.30;;;;;;;;;;6247019;22;20579;-91
2022/03/14 13:38:50;;;;;;;8.95;2.00;;;;;;;;;;6248138;22;20004;-91
2022/03/14 13:41:22;;;;;;;5.70;2.10;;;;;;;;;;6248263;22;20038;-90
2022/03/14 13:43:50;;;;;;;8.75;2.28;;;;;;;;;;6248728;22;20309;-91
2022/03/14 13:46:24;;;;;;;6.97;2.13;;;;;;;;;;6248050;22;20451;-91
2022/03/14 13:48:51;;;;;;;11.05;2.13;;;;;;;;;;6247920;22;19996;-92
2022/03/14 13:51:20;;;;;;;6.75;2.05;;;;;;;;;;6274229;22;20004;-90
2022/03/14 13:53:47;;;;;;;8.63;2.00;;;;;;;;;;6247950;22;19996;-92
2022/03/14 13:56:13;;;;;;;4.85;1.80;;;;;;;;;;6248212;22;20027;-91
2022/03/14 13:58:40;;;;;;;6.93;2.03;;;;;;;;;;6248569;22;20037;-91
2022/03/14 14:01:06;;;;;;;5.82;2.22;;;;;;;;;;6248195;22;20000;-90
2022/03/14 14:03:33;;;;;;;5.70;1.80;;;;;;;;;;6247899;22;20004;-90
2022/03/14 14:06:17;;;;;;;8.63;2.20;;;;;;;;;;6247733;22;20337;-90
2022/03/14 14:08:44;;;;;;;6.70;2.22;;;;;;;;;;6248955;22;20078;-91
2022/03/14 14:11:31;;;;;;;7.05;2.22;;;;;;;;;;6276290;22;19996;-92
2022/03/14 14:13:57;;;;;;;7.13;2.20;;;;;;;;;;6249224;22;20004;-91
2022/03/14 14:16:23;;;;;;;7.25;2.30;;;;;;;;;;6273545;22;19999;-90
2022/03/14 14:19:08;;;;;;;11.55;2.80;;;;;;;;;;6250395;22;20003;-90
2022/03/14 14:21:35;;;;;;;5.10;2.08;;;;;;;;;;6247634;22;20018;-91
2022/03/14 14:24:01;;;;;;;13.45;2.80;;;;;;;;;;6247797;22;20008;-93
2022/03/14 14:26:31;;;;;;;7.25;2.30;;;;;;;;;;6247456;22;20004;-91
2022/03/14 14:28:58;;;;;;;8.85;2.20;;;;;;;;;;6247546;22;20000;-91
2022/03/14 14:31:24;;;;;;;8.07;1.98;;;;;;;;;;6248901;22;20011;-90
2022/03/14 14:33:50;;;;;;;7.28;2.15;;;;;;;;;;6251012;22;20004;-89
2022/03/14 14:36:17;;;;;;;5.80;1.98;;;;;;;;;;6251046;22;20403;-92
2022/03/14 14:38:43;;;;;;;10.50;2.40;;;;;;;;;;6252763;22;20138;-90
2022/03/14 14:41:11;;;;;;;9.63;2.22;;;;;;;;;;6251827;22;20007;-90
2022/03/14 14:43:38;;;;;;;6.20;2.25;;;;;;;;;;6251704;22;20053;-91
2022/03/14 14:46:05;;;;;;;7.05;2.10;;;;;;;;;;6252849;22;20004;-91
2022/03/14 14:48:34;;;;;;;9.00;2.00;;;;;;;;;;6252510;22;20483;-91
2022/03/14 14:51:02;;;;;;;7.03;2.13;;;;;;;;;;6249228;22;20446;-90
2022/03/14 14:53:29;;;;;;;8.55;2.28;;;;;;;;;;6248615;22;20050;-90
2022/03/14 14:55:56;;;;;;;5.88;1.73;;;;;;;;;;6249122;22;20007;-90
2022/03/14 14:58:23;;;;;;;6.63;1.98;;;;;;;;;;6250533;22;20012;-90
2022/03/14 15:00:50;;;;;;;6.87;2.10;;;;;;;;;;6249344;22;20444;-90
2022/03/14 15:03:17;;;;;;;7.57;2.10;;;;;;;;;;6275996;22;20000;-91
2022/03/14 15:05:45;;;;;;;9.43;2.38;;;;;;;;;;6250860;22;20053;-91
2022/03/14 15:08:12;;;;;;;6.35;1.88;;;;;;;;;;6250974;22;20008;-91
2022/03/14 15:10:39;;;;;;;7.65;2.20;;;;;;;;;;6248816;22;20000;-91
2022/03/14 15:13:05;;;;;;;5.25;1.90;;;;;;;;;;6248324;22;20599;-89
2022/03/14 15:15:32;;;;;;;6.43;2.05;;;;;;;;;;6248119;22;20008;-90
2022/03/14 15:17:58;;;;;;;5.47;1.92;;;;;;;;;;6249015;22;20012;-91
2022/03/14 15:20:25;;;;;;;5.15;1.90;;;;;;;;;;6248256;22;20403;-90
2022/03/14 15:22:51;;;;;;;4.20;1.88;;;;;;;;;;6247847;22;20019;-90
2022/03/14 15:25:20;;;;;;;5.28;1.98;;;;;;;;;;6248364;22;20494;-92
2022/03/14 15:27:47;;;;;;;6.07;1.80;;;;;;;;;;6248152;22;20076;-90
2022/03/14 15:30:14;;;;;;;6.90;1.70;;;;;;;;;;6249241;22;20007;-90
2022/03/14 15:32:41;;;;;;;4.72;1.83;;;;;;;;;;6247868;22;20004;-89
2022/03/14 15:35:15;;;;;;;5.83;1.90;;;;;;;;;;6248303;22;20008;-90
2022/03/14 15:37:49;;;;;;;5.40;1.88;;;;;;;;;;6247912;22;20019;-92
2022/03/14 15:40:24;;;;;;;7.20;1.90;;;;;;;;;;6248812;22;20007;-93
2022/03/14 15:42:51;;;;;;;7.20;2.80;;;;;;;;;;6248963;22;20082;-92
2022/03/14 15:45:35;;;;;;;9.95;2.40;;;;;;;;;;6247748;22;20006;-91
2022/03/14 15:48:01;;;;;;;5.43;1.77;;;;;;;;;;6248255;22;20098;-90
2022/03/14 15:50:30;;;;;;;4.97;1.88;;;;;;;;;;6251120;22;20011;-93
2022/03/14 15:52:57;;;;;;;3.30;1.70;;;;;;;;;;6252184;22;19999;-91
2022/03/14 15:55:23;;;;;;;10.70;2.30;;;;;;;;;;6249310;22;20431;-92
2022/03/14 15:57:49;;;;;;;6.03;1.90;;;;;;;;;;6247371;22;20043;-90
2022/03/14 16:00:16;;;;;;;6.55;2.30;;;;;;;;;;6247423;22;20004;-90
2022/03/14 16:02:44;;;;;;;8.82;2.63;;;;;;;;;;6247267;22;20087;-93
2022/03/14 16:05:11;;;;;;;10.15;2.97;;;;;;;;;;6246547;22;20004;-92
2022/03/14 16:07:38;;;;;;;6.30;2.40;;;;;;;;;;6246501;22;20440;-90
2022/03/14 16:10:06;;;;;;;7.78;2.30;;;;;;;;;;6246606;22;20008;-91
2022/03/14 16:12:35;;;;;;;7.40;2.50;;;;;;;;;;6246932;22;20003;-91
2022/03/14 16:18:30;;;;;;;;;;;;;;;;;;;;;
2022/03/14 16:23:45;;;;;;;6.80;2.00;;;;;;;;;;6151474;23;20020;-91
2022/03/14 16:36:01;;;;;;;;;;;;;;;;;;;;;
2022/03/14 16:42:12;;;;;;;;;;;;;;;;;;;;;
2022/03/14 16:49:04;;;;;;;9.52;2.78;;;;;;;;;;6002220;23;20504;-91
2022/03/14 16:58:22;;;;;;;13.10;2.53;;;;;;;;;;5896059;24;20029;-94
2022/03/14 17:04:24;;;;;;;21.42;3.55;;;;;;;;;;5815529;24;20054;-89
2022/03/14 17:06:54;;;;;;;8.07;2.70;;;;;;;;;;5872508;24;20005;-90
2022/03/14 17:09:23;;;;;;;9.40;2.50;;;;;;;;;;5980856;23;20007;-92
2022/03/14 17:24:01;;;;;;;12.52;2.70;;;;;;;;;;6063972;23;20029;-93
2022/03/14 17:26:30;;;;;;;11.13;2.50;;;;;;;;;;6062596;23;20003;-93
2022/03/14 17:29:17;;;;;;;10.52;2.40;;;;;;;;;;6117518;23;20029;-94
2022/03/14 17:31:43;;;;;;;8.35;2.22;;;;;;;;;;6147039;23;20093;-92
2022/03/14 17:34:10;;;;;;;7.63;2.65;;;;;;;;;;6209662;23;20337;-90
2022/03/14 17:36:36;;;;;;;9.13;2.33;;;;;;;;;;6209721;23;20029;-91
2022/03/14 17:39:02;;;;;;;8.30;2.20;;;;;;;;;;6209545;23;20341;-91
2022/03/14 17:41:28;;;;;;;7.07;2.00;;;;;;;;;;6209835;23;20008;-91
2022/03/14 17:43:55;;;;;;;6.65;2.30;;;;;;;;;;6209429;23;20049;-91
2022/03/14 17:46:22;;;;;;;9.82;2.90;;;;;;;;;;6209527;23;20004;-90
2022/03/14 17:48:48;;;;;;;10.73;2.55;;;;;;;;;;6210848;23;20095;-90
2022/03/14 17:51:15;;;;;;;10.60;2.20;;;;;;;;;;6210327;23;20008;-91
2022/03/14 17:53:41;;;;;;;8.20;2.45;;;;;;;;;;6209778;23;20004;-88
2022/03/14 17:56:08;;;;;;;8.25;2.15;;;;;;;;;;6208967;23;20005;-88
2022/03/14 17:58:34;;;;;;;8.88;2.50;;;;;;;;;;6209578;23;20019;-90
2022/03/14 18:01:00;;;;;;;7.10;2.30;;;;;;;;;;6209091;23;20001;-92
2022/03/14 18:03:33;;;;;;;9.68;2.65;;;;;;;;;;6209581;23;20016;-90
2022/03/14 18:05:59;;;;;;;8.45;2.40;;;;;;;;;;6222303;22;20428;-91
2022/03/14 18:08:28;;;;;;;12.70;2.40;;;;;;;;;;6245281;22;20062;-90
2022/03/14 18:10:54;;;;;;;13.43;2.97;;;;;;;;;;6245470;22;20004;-89
2022/03/14 18:13:20;;;;;;;9.77;2.60;;;;;;;;;;6246615;22;20073;-92
2022/03/14 18:15:47;;;;;;;6.53;2.40;;;;;;;;;;6246231;22;20344;-88
2022/03/14 18:18:13;;;;;;;12.18;2.95;;;;;;;;;;6244547;22;20011;-90
2022/03/14 18:20:39;;;;;;;8.77;2.40;;;;;;;;;;6245130;22;20000;-90
2022/03/14 18:23:06;;;;;;;9.23;2.83;;;;;;;;;;6245917;22;20008;-91
2022/03/14 18:25:33;;;;;;;23.77;11.15;;;;;;;;;;6245397;22;20008;-90
2022/03/14 18:27:59;;;;;;;82.18;28.33;;;;;;;;;;6245583;22;20007;-90
2022/03/14 18:30:25;;;;;;;21.92;11.80;;;;;;;;;;6245876;22;20008;-90
2022/03/14 18:32:51;;;;;;;19.52;9.30;;;;;;;;;;6245984;22;20004;-91
2022/03/14 18:35:18;;;;;;;12.98;5.38;;;;;;;;;;6273532;22;20000;-90
2022/03/14 18:37:49;;;;;;;12.63;4.90;;;;;;;;;;6245340;22;20016;-90
2022/03/14 18:40:15;;;;;;;7.93;3.90;;;;;;;;;;6246417;22;20004;-90
2022/03/14 18:42:42;;;;;;;10.77;3.60;;;;;;;;;;6245880;22;20200;-89
2022/03/14 18:45:08;;;;;;;12.07;3.53;;;;;;;;;;6245325;22;19999;-91
2022/03/14 18:47:36;;;;;;;4.72;2.15;;;;;;;;;;6245809;22;20004;-92
2022/03/14 18:50:02;;;;;;;7.43;2.60;;;;;;;;;;6245351;22;20067;-90
2022/03/14 18:52:29;;;;;;;6.18;2.78;;;;;;;;;;6245972;22;20008;-90
2022/03/14 18:54:59;;;;;;;10.05;3.25;;;;;;;;;;6216078;23;20024;-90
2022/03/14 18:57:25;;;;;;;9.05;3.13;;;;;;;;;;6215966;23;20363;-90
2022/03/14 18:59:52;;;;;;;10.63;2.65;;;;;;;;;;6216478;23;20003;-89
2022/03/14 19:02:19;;;;;;;5.63;2.38;;;;;;;;;;6216631;23;20415;-90
2022/03/14 19:04:49;;;;;;;8.13;2.50;;;;;;;;;;6215926;23;20081;-90
2022/03/14 19:07:15;;;;;;;11.93;3.28;;;;;;;;;;6215147;23;20059;-90
2022/03/14 19:09:46;;;;;;;10.02;2.90;;;;;;;;;;6217447;23;20077;-91
2022/03/14 19:12:12;;;;;;;8.05;2.65;;;;;;;;;;6215714;23;20044;-91
2022/03/14 19:14:39;;;;;;;10.18;2.90;;;;;;;;;;6214768;23;20000;-90
2022/03/14 19:17:08;;;;;;;12.90;3.88;;;;;;;;;;6214974;23;20016;-90
2022/03/14 19:19:43;;;;;;;11.30;2.67;;;;;;;;;;6216429;23;20340;-89
2022/03/14 19:22:10;;;;;;;10.07;2.97;;;;;;;;;;6244106;23;20011;-92
2022/03/14 19:24:39;;;;;;;13.73;3.20;;;;;;;;;;6217601;23;20012;-93
2022/03/14 19:27:06;;;;;;;11.95;3.05;;;;;;;;;;6217079;23;20004;-90
2022/03/14 19:29:50;;;;;;;11.20;2.65;;;;;;;;;;6217689;23;20011;-90
2022/03/14 20:16:18;;;;;;;12.15;2.97;;;;;;;;;;5844636;24;19969;-89
2022/03/14 20:18:45;;;;;;;9.35;2.75;;;;;;;;;;5880724;24;20015;-91
2022/03/14 20:21:12;;;;;;;10.07;2.70;;;;;;;;;;6007277;23;20185;-89
2022/03/14 20:23:38;;;;;;;12.55;2.90;;;;;;;;;;6216740;23;20026;-89